Time;durP1;ratioP1;P1;durP2;ratioP2;P2;SDS_P1;SDS_P2;PMS_P1;PMS_P2;Temp;Humidity;BMP_temperature;BMP_pressure;BME280_temperature;BME280_humidity;BME280_pressure;Samples;Min_cycle;Max_cycle;Signal;HPM_P1;HPM_P2
2022/03/30 00:00:50;;;;;;;38.50;22.63;;;;;;;;;;4952298;29;20158;-62
2022/03/30 00:03:17;;;;;;;35.83;22.67;;;;;;;;;;4951610;29;20027;-62
2022/03/30 00:05:43;;;;;;;40.05;23.00;;;;;;;;;;4952319;29;20098;-61
2022/03/30 00:08:09;;;;;;;40.65;22.73;;;;;;;;;;4952532;29;20034;-62
2022/03/30 00:10:35;;;;;;;43.42;24.25;;;;;;;;;;4952523;29;20019;-62
2022/03/30 00:13:01;;;;;;;37.15;22.98;;;;;;;;;;4951482;29;20562;-61
2022/03/30 00:15:28;;;;;;;36.80;23.00;;;;;;;;;;4935127;29;20028;-60
2022/03/30 00:17:54;;;;;;;41.97;22.92;;;;;;;;;;4955072;28;20046;-63
2022/03/30 00:20:21;;;;;;;37.95;23.50;;;;;;;;;;4955308;29;20064;-61
2022/03/30 00:22:47;;;;;;;43.47;24.02;;;;;;;;;;4955263;29;20396;-62
2022/03/30 00:25:14;;;;;;;41.45;23.55;;;;;;;;;;4955277;29;20061;-61
2022/03/30 00:27:43;;;;;;;39.28;24.23;;;;;;;;;;4937908;29;20487;-61
2022/03/30 00:30:10;;;;;;;42.63;26.20;;;;;;;;;;4955533;28;20170;-61
2022/03/30 00:32:36;;;;;;;46.03;25.45;;;;;;;;;;4955163;29;20495;-61
2022/03/30 00:35:03;;;;;;;48.78;26.17;;;;;;;;;;4954844;29;20476;-62
2022/03/30 00:37:29;;;;;;;43.15;25.80;;;;;;;;;;4955377;29;20307;-61
2022/03/30 00:39:55;;;;;;;45.00;24.55;;;;;;;;;;4955952;29;20059;-61
2022/03/30 00:42:22;;;;;;;44.47;24.85;;;;;;;;;;4955304;29;20565;-61
2022/03/30 00:44:48;;;;;;;40.65;23.95;;;;;;;;;;4954801;29;20035;-61
2022/03/30 00:47:18;;;;;;;38.10;23.17;;;;;;;;;;4955384;29;20035;-61
2022/03/30 00:49:44;;;;;;;39.78;23.45;;;;;;;;;;4955022;29;20087;-61
2022/03/30 00:52:12;;;;;;;38.67;23.38;;;;;;;;;;4955172;29;20035;-60
2022/03/30 00:54:39;;;;;;;38.70;23.15;;;;;;;;;;4955525;29;20023;-61
2022/03/30 00:57:09;;;;;;;40.53;23.90;;;;;;;;;;4954899;29;20038;-60
2022/03/30 00:59:35;;;;;;;40.85;22.23;;;;;;;;;;4955084;28;20039;-61
2022/03/30 01:02:01;;;;;;;37.17;22.42;;;;;;;;;;4955005;29;20034;-61
2022/03/30 01:04:28;;;;;;;38.28;22.90;;;;;;;;;;4954869;29;20407;-60
2022/03/30 01:06:54;;;;;;;35.08;21.20;;;;;;;;;;4955246;29;20324;-61
2022/03/30 01:09:20;;;;;;;35.67;21.50;;;;;;;;;;4955184;29;20035;-61
2022/03/30 01:11:51;;;;;;;35.65;22.33;;;;;;;;;;4955029;29;20031;-61
2022/03/30 01:14:18;;;;;;;37.97;22.15;;;;;;;;;;4954964;29;20073;-61
2022/03/30 01:16:44;;;;;;;42.50;22.90;;;;;;;;;;4954953;29;20039;-61
2022/03/30 01:19:10;;;;;;;39.08;22.70;;;;;;;;;;4954495;29;20031;-60
2022/03/30 01:21:37;;;;;;;35.75;22.05;;;;;;;;;;4954810;29;20134;-62
2022/03/30 01:24:04;;;;;;;38.33;21.60;;;;;;;;;;4954692;29;20238;-61
2022/03/30 01:26:30;;;;;;;36.53;22.65;;;;;;;;;;4954965;29;20123;-61
2022/03/30 01:28:57;;;;;;;39.55;22.35;;;;;;;;;;4953695;28;20027;-59
2022/03/30 01:34:08;;;;;;;38.28;23.67;;;;;;;;;;4954325;29;20059;-60
2022/03/30 01:36:37;;;;;;;42.35;23.08;;;;;;;;;;4953907;29;20386;-61
2022/03/30 01:39:04;;;;;;;42.25;24.13;;;;;;;;;;4936848;29;20043;-61
2022/03/30 01:41:30;;;;;;;43.67;23.20;;;;;;;;;;4954190;29;20031;-61
2022/03/30 01:43:57;;;;;;;34.38;21.13;;;;;;;;;;4954169;29;20042;-59
2022/03/30 01:46:23;;;;;;;39.60;22.48;;;;;;;;;;4954465;29;20096;-58
2022/03/30 01:48:50;;;;;;;39.78;22.73;;;;;;;;;;4953501;29;20031;-60
2022/03/30 01:51:16;;;;;;;33.95;20.90;;;;;;;;;;4953962;29;20035;-61
2022/03/30 01:53:42;;;;;;;36.80;20.73;;;;;;;;;;4953818;29;20038;-60
2022/03/30 01:56:08;;;;;;;40.00;21.25;;;;;;;;;;4953754;29;20043;-60
2022/03/30 01:58:34;;;;;;;37.67;21.67;;;;;;;;;;4953799;29;20490;-59
2022/03/30 02:01:03;;;;;;;32.72;20.35;;;;;;;;;;4954399;29;20047;-60
2022/03/30 02:03:29;;;;;;;35.38;20.73;;;;;;;;;;4955692;29;20023;-61
2022/03/30 02:05:55;;;;;;;34.95;20.10;;;;;;;;;;4955100;29;20015;-60
2022/03/30 02:08:22;;;;;;;32.22;20.05;;;;;;;;;;4953683;29;20115;-61
2022/03/30 02:10:48;;;;;;;35.33;20.35;;;;;;;;;;4953454;29;20039;-62
2022/03/30 02:13:14;;;;;;;34.13;19.55;;;;;;;;;;4953783;29;20027;-62
2022/03/30 02:15:40;;;;;;;35.88;19.83;;;;;;;;;;4953810;29;20424;-61
2022/03/30 02:18:06;;;;;;;30.95;19.17;;;;;;;;;;4953367;29;20042;-61
2022/03/30 02:20:33;;;;;;;35.25;19.40;;;;;;;;;;4953623;29;20027;-61
2022/03/30 02:22:59;;;;;;;38.03;19.75;;;;;;;;;;4953399;29;20038;-61
2022/03/30 02:25:26;;;;;;;34.38;19.25;;;;;;;;;;4953585;29;20020;-61
2022/03/30 02:27:52;;;;;;;31.40;17.80;;;;;;;;;;4953501;29;20059;-61
2022/03/30 02:30:18;;;;;;;32.25;18.23;;;;;;;;;;4953285;28;20131;-61
2022/03/30 02:32:44;;;;;;;33.15;18.67;;;;;;;;;;4953037;29;20178;-58
2022/03/30 02:35:10;;;;;;;31.08;17.90;;;;;;;;;;4953400;29;20038;-62
2022/03/30 02:37:36;;;;;;;32.40;17.88;;;;;;;;;;4953338;29;20039;-61
2022/03/30 02:40:04;;;;;;;27.15;16.67;;;;;;;;;;4952554;28;20031;-61
2022/03/30 02:42:30;;;;;;;31.27;16.30;;;;;;;;;;4952845;29;20031;-59
2022/03/30 02:44:56;;;;;;;28.55;15.07;;;;;;;;;;4953330;29;20380;-62
2022/03/30 02:48:17;;;;;;;28.17;15.52;;;;;;;;;;4953412;29;20066;-61
2022/03/30 02:50:08;;;;;;;24.30;14.70;;;;;;;;;;4953091;29;20051;-62
2022/03/30 02:52:35;;;;;;;22.58;13.70;;;;;;;;;;4952699;29;20127;-61
2022/03/30 02:55:01;;;;;;;26.02;14.60;;;;;;;;;;4953424;29;20042;-61
2022/03/30 02:57:27;;;;;;;26.10;14.07;;;;;;;;;;4952698;29;20499;-61
2022/03/30 02:59:53;;;;;;;27.15;14.40;;;;;;;;;;4953279;29;20043;-60
2022/03/30 03:02:19;;;;;;;27.42;14.10;;;;;;;;;;4953118;29;20098;-60
2022/03/30 03:04:46;;;;;;;27.90;14.63;;;;;;;;;;4953429;29;20110;-60
2022/03/30 03:07:14;;;;;;;29.50;14.48;;;;;;;;;;4952262;29;20043;-61
2022/03/30 03:09:40;;;;;;;30.95;14.93;;;;;;;;;;4952461;29;20030;-60
2022/03/30 03:12:06;;;;;;;23.25;13.65;;;;;;;;;;4952768;29;20031;-61
2022/03/30 03:14:33;;;;;;;28.23;13.93;;;;;;;;;;4952775;29;20035;-61
2022/03/30 03:16:59;;;;;;;27.45;14.38;;;;;;;;;;4952520;29;20110;-60
2022/03/30 03:19:25;;;;;;;26.80;14.52;;;;;;;;;;4952049;29;20031;-61
2022/03/30 03:21:51;;;;;;;24.75;13.90;;;;;;;;;;4952517;29;20039;-61
2022/03/30 03:24:17;;;;;;;24.80;13.15;;;;;;;;;;4952532;29;20041;-61
2022/03/30 03:26:43;;;;;;;24.20;13.20;;;;;;;;;;4952461;29;20039;-61
2022/03/30 03:29:09;;;;;;;29.45;13.05;;;;;;;;;;4952148;28;20054;-60
2022/03/30 03:31:35;;;;;;;29.17;13.77;;;;;;;;;;4952803;29;20066;-61
2022/03/30 03:34:01;;;;;;;26.33;12.65;;;;;;;;;;4952226;29;20051;-61
2022/03/30 03:36:27;;;;;;;22.92;11.57;;;;;;;;;;4952212;29;20039;-61
2022/03/30 03:38:54;;;;;;;25.67;11.43;;;;;;;;;;4952281;29;20035;-61
2022/03/30 03:41:20;;;;;;;29.80;11.63;;;;;;;;;;4952594;29;20064;-60
2022/03/30 03:43:46;;;;;;;24.90;11.38;;;;;;;;;;4952303;29;20054;-60
2022/03/30 03:46:12;;;;;;;25.73;11.32;;;;;;;;;;4952117;29;20110;-61
2022/03/30 03:48:38;;;;;;;27.45;11.68;;;;;;;;;;4952037;29;20032;-61
2022/03/30 03:51:05;;;;;;;22.35;10.48;;;;;;;;;;4952692;28;20365;-60
2022/03/30 07:12:13;;;;;;;24.60;7.75;;;;;;;;;;4952797;29;20126;-62
2022/03/30 07:14:39;;;;;;;26.85;8.02;;;;;;;;;;4935420;29;20043;-62
2022/03/30 07:17:05;;;;;;;30.05;8.18;;;;;;;;;;4952708;29;20035;-62
2022/03/30 07:19:31;;;;;;;23.20;7.25;;;;;;;;;;4952873;29;20144;-62
2022/03/30 07:21:57;;;;;;;24.90;7.90;;;;;;;;;;4935310;29;20505;-62
2022/03/30 07:24:23;;;;;;;22.77;6.78;;;;;;;;;;4951634;29;20042;-62
2022/03/30 07:26:50;;;;;;;22.33;6.07;;;;;;;;;;4952075;28;20031;-62
2022/03/30 07:29:16;;;;;;;28.77;7.13;;;;;;;;;;4952616;29;20479;-61
2022/03/30 07:31:43;;;;;;;22.90;6.85;;;;;;;;;;4952646;29;20039;-62
2022/03/30 07:34:09;;;;;;;19.27;6.43;;;;;;;;;;4934950;29;20043;-62
2022/03/30 07:36:35;;;;;;;23.75;6.57;;;;;;;;;;4952045;29;20031;-62
2022/03/30 07:39:01;;;;;;;18.88;6.88;;;;;;;;;;4952244;29;20153;-62
2022/03/30 07:41:27;;;;;;;21.90;6.60;;;;;;;;;;4953028;29;20023;-62
2022/03/30 07:43:53;;;;;;;28.80;7.05;;;;;;;;;;4952164;29;20094;-62
2022/03/30 07:46:20;;;;;;;20.05;6.45;;;;;;;;;;4952260;29;20042;-61
2022/03/30 07:48:46;;;;;;;18.35;6.53;;;;;;;;;;4952092;29;20424;-61
2022/03/30 07:51:12;;;;;;;23.30;6.30;;;;;;;;;;4952262;29;20027;-62
2022/03/30 07:53:38;;;;;;;26.25;6.85;;;;;;;;;;4952478;29;20028;-64
2022/03/30 07:56:04;;;;;;;16.55;5.97;;;;;;;;;;4952082;29;20059;-62
2022/03/30 07:58:30;;;;;;;23.55;6.78;;;;;;;;;;4952246;29;20040;-62
2022/03/30 08:00:56;;;;;;;19.90;6.50;;;;;;;;;;4952325;29;20024;-62
2022/03/30 08:03:23;;;;;;;27.92;7.13;;;;;;;;;;4952324;29;20079;-62
2022/03/30 08:05:49;;;;;;;26.08;6.80;;;;;;;;;;4952630;29;20447;-63
2022/03/30 08:08:15;;;;;;;24.05;6.47;;;;;;;;;;4952004;29;20031;-62
2022/03/30 08:10:41;;;;;;;21.98;6.18;;;;;;;;;;4952247;29;20126;-61
2022/03/30 08:13:07;;;;;;;23.02;6.50;;;;;;;;;;4952100;29;20056;-62
2022/03/30 08:15:36;;;;;;;23.15;6.68;;;;;;;;;;4952013;29;20110;-63
2022/03/30 08:18:02;;;;;;;22.98;6.22;;;;;;;;;;4951699;29;20042;-62
2022/03/30 08:23:13;;;;;;;19.90;5.68;;;;;;;;;;4951326;29;20035;-62
2022/03/30 08:25:39;;;;;;;26.02;6.80;;;;;;;;;;4952069;29;20106;-62
2022/03/30 08:28:06;;;;;;;23.13;6.47;;;;;;;;;;4951805;29;20480;-63
2022/03/30 08:30:32;;;;;;;19.02;6.70;;;;;;;;;;4952180;29;20028;-62
2022/03/30 08:32:58;;;;;;;24.60;7.53;;;;;;;;;;4952288;29;20054;-62
2022/03/30 08:35:25;;;;;;;23.08;6.35;;;;;;;;;;4951796;29;20487;-62
2022/03/30 08:37:51;;;;;;;25.52;6.45;;;;;;;;;;4953166;28;20404;-62
2022/03/30 08:40:18;;;;;;;26.77;6.85;;;;;;;;;;4955144;29;20042;-62
2022/03/30 08:42:44;;;;;;;21.70;6.43;;;;;;;;;;4955675;29;20546;-62
2022/03/30 08:45:10;;;;;;;25.60;6.47;;;;;;;;;;4955407;29;20483;-63
2022/03/30 08:47:36;;;;;;;18.77;6.22;;;;;;;;;;4955243;29;20031;-62
2022/03/30 08:50:06;;;;;;;20.35;6.15;;;;;;;;;;4955085;29;20152;-63
2022/03/30 08:52:32;;;;;;;20.52;6.05;;;;;;;;;;4955583;29;20034;-63
2022/03/30 08:54:59;;;;;;;26.48;6.50;;;;;;;;;;4954984;29;20105;-61
2022/03/30 08:57:25;;;;;;;20.85;6.35;;;;;;;;;;4955056;29;20126;-61
2022/03/30 08:59:58;;;;;;;26.95;7.43;;;;;;;;;;4955134;29;20082;-65
2022/03/30 09:02:33;;;;;;;24.25;6.93;;;;;;;;;;4955100;29;20480;-63
2022/03/30 09:05:15;;;;;;;25.92;7.85;;;;;;;;;;4954986;29;20105;-61
2022/03/30 09:07:45;;;;;;;20.90;7.15;;;;;;;;;;4954951;29;20028;-63
2022/03/30 09:10:19;;;;;;;23.67;6.68;;;;;;;;;;4954455;29;20129;-63
2022/03/30 09:12:45;;;;;;;25.85;7.60;;;;;;;;;;4954356;29;20538;-63
2022/03/30 09:15:12;;;;;;;20.50;6.70;;;;;;;;;;4954654;29;20428;-64
2022/03/30 09:17:42;;;;;;;26.13;7.63;;;;;;;;;;4953758;29;20041;-64
2022/03/30 09:20:16;;;;;;;20.63;6.63;;;;;;;;;;4953774;29;20023;-63
2022/03/30 09:22:48;;;;;;;26.95;7.80;;;;;;;;;;4958763;29;20062;-63
2022/03/30 09:25:15;;;;;;;20.40;7.40;;;;;;;;;;4954057;29;20027;-63
2022/03/30 09:27:42;;;;;;;19.45;7.22;;;;;;;;;;4954360;29;20078;-63
2022/03/30 09:30:10;;;;;;;21.30;7.45;;;;;;;;;;4954958;29;20031;-63
2022/03/30 09:32:36;;;;;;;22.77;7.30;;;;;;;;;;4954478;29;20102;-63
2022/03/30 09:35:03;;;;;;;20.60;7.10;;;;;;;;;;4954002;29;20053;-63
2022/03/30 09:37:29;;;;;;;23.83;7.65;;;;;;;;;;4954731;29;20027;-63
2022/03/30 09:39:55;;;;;;;26.00;7.22;;;;;;;;;;4954236;29;20039;-64
2022/03/30 09:42:22;;;;;;;18.08;7.10;;;;;;;;;;4954614;29;20087;-62
2022/03/30 09:44:52;;;;;;;32.42;7.43;;;;;;;;;;4954255;29;20062;-62
2022/03/30 09:47:19;;;;;;;23.83;6.70;;;;;;;;;;4954521;29;20027;-63
2022/03/30 09:49:52;;;;;;;20.27;7.43;;;;;;;;;;4953609;28;20061;-63
2022/03/30 09:52:18;;;;;;;21.20;7.53;;;;;;;;;;4954186;29;20035;-63
2022/03/30 09:54:47;;;;;;;24.48;8.40;;;;;;;;;;4953923;29;20118;-63
2022/03/30 09:57:17;;;;;;;30.45;7.50;;;;;;;;;;4954045;29;20391;-62
2022/03/30 09:59:56;;;;;;;22.65;7.40;;;;;;;;;;4953287;29;20035;-63
2022/03/30 10:02:23;;;;;;;21.95;7.35;;;;;;;;;;4953854;29;20015;-62
2022/03/30 10:04:50;;;;;;;22.65;7.30;;;;;;;;;;4954131;29;20049;-62
2022/03/30 10:07:17;;;;;;;22.45;7.30;;;;;;;;;;4954089;29;20035;-63
2022/03/30 10:09:43;;;;;;;23.80;7.10;;;;;;;;;;4953208;29;20047;-62
2022/03/30 10:12:09;;;;;;;19.27;7.68;;;;;;;;;;4953725;29;20031;-60
2022/03/30 10:14:39;;;;;;;22.20;8.10;;;;;;;;;;4953635;29;20095;-62
2022/03/30 10:17:06;;;;;;;22.25;7.35;;;;;;;;;;4953753;29;20477;-61
2022/03/30 10:19:32;;;;;;;22.67;7.40;;;;;;;;;;4953018;29;20067;-61
2022/03/30 10:22:16;;;;;;;24.48;9.05;;;;;;;;;;4953535;29;20420;-61
2022/03/30 10:25:09;;;;;;;26.58;8.63;;;;;;;;;;4953700;29;20027;-61
2022/03/30 10:27:38;;;;;;;25.40;9.43;;;;;;;;;;4916736;29;20083;-61
2022/03/30 10:30:06;;;;;;;26.33;10.38;;;;;;;;;;4953276;29;20074;-62
2022/03/30 10:32:34;;;;;;;29.55;11.98;;;;;;;;;;4953618;29;20030;-62
2022/03/30 10:35:11;;;;;;;21.20;8.95;;;;;;;;;;4953559;29;20035;-63
2022/03/30 10:37:38;;;;;;;34.17;8.50;;;;;;;;;;4953427;29;20024;-64
2022/03/30 10:40:04;;;;;;;39.63;8.98;;;;;;;;;;4952749;29;20114;-63
2022/03/30 10:42:49;;;;;;;26.00;8.85;;;;;;;;;;4953479;29;20063;-64
2022/03/30 10:45:19;;;;;;;36.47;8.30;;;;;;;;;;4953316;29;20059;-63
2022/03/30 10:48:03;;;;;;;48.88;8.40;;;;;;;;;;4953389;29;20023;-65
2022/03/30 10:50:32;;;;;;;33.50;7.72;;;;;;;;;;4953361;29;20054;-65
2022/03/30 10:52:59;;;;;;;29.90;7.28;;;;;;;;;;4952549;29;20027;-64
2022/03/30 10:55:25;;;;;;;34.53;7.38;;;;;;;;;;4953152;29;20026;-64
2022/03/30 10:57:58;;;;;;;30.63;7.28;;;;;;;;;;4952733;29;20038;-64
2022/03/30 11:00:29;;;;;;;34.15;7.13;;;;;;;;;;4952984;28;20031;-64
2022/03/30 11:03:09;;;;;;;20.83;7.07;;;;;;;;;;4952599;29;20031;-62
2022/03/30 11:05:35;;;;;;;26.65;6.68;;;;;;;;;;4952412;29;20027;-59
2022/03/30 11:08:02;;;;;;;17.73;7.20;;;;;;;;;;4952902;29;20019;-60
2022/03/30 11:10:48;;;;;;;19.80;6.18;;;;;;;;;;4952426;29;20500;-62
2022/03/30 11:13:23;;;;;;;19.27;5.78;;;;;;;;;;4952616;29;20035;-61
2022/03/30 11:15:59;;;;;;;23.17;7.07;;;;;;;;;;4952873;29;20067;-61
2022/03/30 11:18:25;;;;;;;15.15;6.63;;;;;;;;;;4952912;29;20045;-62
2022/03/30 11:21:13;;;;;;;25.15;7.00;;;;;;;;;;4952379;29;20027;-60
2022/03/30 11:23:39;;;;;;;19.20;6.80;;;;;;;;;;4952718;29;20399;-59
2022/03/30 11:26:06;;;;;;;25.33;6.47;;;;;;;;;;4952701;29;20467;-60
2022/03/30 11:28:36;;;;;;;20.35;6.00;;;;;;;;;;4952711;29;20035;-61
2022/03/30 11:31:05;;;;;;;23.00;6.28;;;;;;;;;;4952523;29;20027;-60
2022/03/30 11:33:34;;;;;;;21.83;5.85;;;;;;;;;;4952523;29;20042;-61
2022/03/30 11:36:02;;;;;;;19.08;5.78;;;;;;;;;;4952236;29;20027;-60
2022/03/30 11:38:37;;;;;;;20.75;6.07;;;;;;;;;;4952066;29;20039;-62
2022/03/30 11:41:11;;;;;;;32.92;7.25;;;;;;;;;;4951539;29;20043;-63
2022/03/30 11:46:27;;;;;;;18.63;5.90;;;;;;;;;;4952764;29;20174;-61
2022/03/30 11:48:53;;;;;;;20.15;5.43;;;;;;;;;;4952217;29;20024;-61
2022/03/30 11:51:25;;;;;;;21.35;5.60;;;;;;;;;;4952499;29;20031;-61
2022/03/30 11:54:08;;;;;;;18.25;5.25;;;;;;;;;;4952229;29;20020;-62
2022/03/30 11:56:34;;;;;;;18.23;5.85;;;;;;;;;;4952556;29;20412;-62
2022/03/30 11:59:01;;;;;;;20.48;6.38;;;;;;;;;;4952200;29;20126;-62
2022/03/30 12:01:27;;;;;;;24.10;6.90;;;;;;;;;;4952468;29;20023;-62
2022/03/30 12:03:55;;;;;;;16.20;5.90;;;;;;;;;;4952343;29;20031;-62
2022/03/30 12:06:21;;;;;;;15.18;5.00;;;;;;;;;;4951750;29;20027;-62
2022/03/30 12:08:48;;;;;;;17.08;5.50;;;;;;;;;;4952076;29;20039;-61
2022/03/30 12:11:15;;;;;;;20.67;5.93;;;;;;;;;;4951679;29;20051;-62
2022/03/30 12:13:42;;;;;;;18.98;5.75;;;;;;;;;;4954883;28;20055;-62
2022/03/30 12:16:09;;;;;;;23.73;6.63;;;;;;;;;;4955910;29;20155;-62
2022/03/30 12:18:45;;;;;;;19.25;6.18;;;;;;;;;;4955759;29;20403;-62
2022/03/30 12:21:15;;;;;;;20.70;5.47;;;;;;;;;;4955576;29;20027;-62
2022/03/30 12:23:51;;;;;;;13.73;6.20;;;;;;;;;;4955885;29;20091;-61
2022/03/30 12:26:17;;;;;;;13.75;6.00;;;;;;;;;;4955812;29;20094;-62
2022/03/30 12:28:43;;;;;;;15.82;6.53;;;;;;;;;;4955991;29;20526;-62
2022/03/30 12:31:10;;;;;;;27.20;7.43;;;;;;;;;;4955902;29;20027;-62
2022/03/30 12:33:50;;;;;;;18.75;6.88;;;;;;;;;;4955329;29;20020;-61
2022/03/30 12:36:20;;;;;;;17.27;6.60;;;;;;;;;;4955723;29;20491;-60
2022/03/30 12:38:49;;;;;;;18.52;6.78;;;;;;;;;;4955509;29;20043;-62
2022/03/30 12:41:25;;;;;;;16.23;6.38;;;;;;;;;;4954785;29;20071;-62
2022/03/30 12:44:01;;;;;;;15.50;6.10;;;;;;;;;;4955241;29;20034;-62
2022/03/30 12:46:32;;;;;;;19.05;6.80;;;;;;;;;;4955228;29;20738;-62
2022/03/30 12:49:08;;;;;;;22.73;6.70;;;;;;;;;;4955460;29;20035;-61
2022/03/30 12:51:36;;;;;;;19.00;6.35;;;;;;;;;;4955052;29;20027;-61
2022/03/30 12:54:03;;;;;;;17.48;6.50;;;;;;;;;;4955011;29;20034;-61
2022/03/30 12:56:29;;;;;;;17.52;6.90;;;;;;;;;;4954705;29;20031;-62
2022/03/30 12:59:01;;;;;;;16.42;6.57;;;;;;;;;;4955273;29;20111;-62
2022/03/30 13:01:49;;;;;;;17.90;6.63;;;;;;;;;;4955133;29;20034;-61
2022/03/30 13:04:22;;;;;;;22.17;6.63;;;;;;;;;;4955107;29;20023;-62
2022/03/30 13:07:07;;;;;;;17.85;6.75;;;;;;;;;;4954945;29;20034;-60
2022/03/30 13:09:34;;;;;;;20.25;6.50;;;;;;;;;;4954165;29;20035;-61
2022/03/30 13:12:01;;;;;;;15.05;5.80;;;;;;;;;;4954824;29;20799;-60
2022/03/30 13:14:27;;;;;;;15.63;6.10;;;;;;;;;;4954476;29;20028;-60
2022/03/30 13:17:06;;;;;;;18.67;6.07;;;;;;;;;;4954699;29;20115;-60
2022/03/30 13:19:32;;;;;;;17.95;6.47;;;;;;;;;;4954553;29;20090;-61
2022/03/30 13:21:59;;;;;;;16.23;5.97;;;;;;;;;;4954328;29;20027;-62
2022/03/30 13:24:26;;;;;;;14.70;6.35;;;;;;;;;;4953696;28;20101;-61
2022/03/30 13:26:57;;;;;;;13.60;6.20;;;;;;;;;;4954799;29;20023;-62
2022/03/30 13:29:23;;;;;;;16.60;6.10;;;;;;;;;;4954698;29;20023;-62
2022/03/30 13:31:50;;;;;;;16.83;5.78;;;;;;;;;;4954748;29;20031;-62
2022/03/30 13:34:17;;;;;;;15.40;5.72;;;;;;;;;;4954240;29;20110;-61
2022/03/30 13:36:44;;;;;;;16.13;5.68;;;;;;;;;;4954259;29;20093;-61
2022/03/30 13:39:11;;;;;;;17.38;6.18;;;;;;;;;;4954162;29;20083;-63
2022/03/30 13:41:37;;;;;;;17.52;6.50;;;;;;;;;;4954081;29;20058;-62
2022/03/30 13:44:04;;;;;;;15.45;6.47;;;;;;;;;;4954612;29;20085;-61
2022/03/30 13:46:31;;;;;;;15.98;6.40;;;;;;;;;;4954352;29;20058;-62
2022/03/30 13:48:57;;;;;;;14.90;6.38;;;;;;;;;;4954459;29;20062;-60
2022/03/30 13:51:23;;;;;;;15.95;6.13;;;;;;;;;;4953774;29;20042;-62
2022/03/30 13:53:49;;;;;;;18.85;6.22;;;;;;;;;;4954419;29;20118;-60
2022/03/30 13:56:17;;;;;;;16.23;6.53;;;;;;;;;;4954223;29;20034;-60
2022/03/30 13:58:44;;;;;;;17.90;6.45;;;;;;;;;;4953870;29;20543;-61
2022/03/30 14:01:11;;;;;;;17.33;6.85;;;;;;;;;;4954265;29;20031;-61
2022/03/30 14:03:37;;;;;;;14.98;6.45;;;;;;;;;;4954194;29;20054;-62
2022/03/30 14:06:05;;;;;;;16.17;6.13;;;;;;;;;;4954116;29;20023;-61
2022/03/30 14:08:31;;;;;;;15.40;6.03;;;;;;;;;;4953676;29;20114;-62
2022/03/30 14:10:58;;;;;;;15.70;7.10;;;;;;;;;;4953285;29;20138;-61
2022/03/30 14:13:25;;;;;;;14.52;6.00;;;;;;;;;;4953685;29;20082;-62
2022/03/30 14:15:51;;;;;;;21.50;6.90;;;;;;;;;;4954038;29;20023;-62
2022/03/30 14:18:18;;;;;;;15.63;6.35;;;;;;;;;;4953937;29;20039;-62
2022/03/30 14:20:44;;;;;;;16.58;6.25;;;;;;;;;;4953780;29;20023;-61
2022/03/30 14:23:10;;;;;;;20.67;7.28;;;;;;;;;;4953311;29;20106;-62
2022/03/30 14:25:37;;;;;;;21.52;6.63;;;;;;;;;;4953339;29;20081;-61
2022/03/30 14:28:04;;;;;;;23.95;8.70;;;;;;;;;;4953531;29;20102;-61
2022/03/30 14:30:33;;;;;;;18.55;6.60;;;;;;;;;;4953226;29;20110;-59
2022/03/30 14:32:59;;;;;;;16.95;6.82;;;;;;;;;;4951109;29;20043;-62
2022/03/30 14:35:27;;;;;;;20.85;6.40;;;;;;;;;;4951327;28;20039;-61
2022/03/30 14:37:53;;;;;;;17.38;6.93;;;;;;;;;;4933919;29;20488;-62
2022/03/30 14:40:19;;;;;;;17.08;6.38;;;;;;;;;;4951374;29;20407;-61
2022/03/30 14:42:45;;;;;;;17.98;6.75;;;;;;;;;;4952527;29;20487;-61
2022/03/30 14:45:14;;;;;;;19.17;5.18;;;;;;;;;;4953169;29;20078;-62
2022/03/30 14:47:40;;;;;;;16.63;5.45;;;;;;;;;;4953133;29;20496;-61
2022/03/30 14:50:06;;;;;;;23.50;5.80;;;;;;;;;;4952600;29;20023;-61
2022/03/30 14:52:32;;;;;;;17.75;5.30;;;;;;;;;;4952888;29;20023;-60
2022/03/30 14:54:59;;;;;;;17.15;5.97;;;;;;;;;;4953024;29;20019;-60
2022/03/30 14:57:28;;;;;;;18.70;6.20;;;;;;;;;;4952336;29;20573;-60
2022/03/30 14:59:55;;;;;;;14.38;5.32;;;;;;;;;;4952113;29;20027;-61
2022/03/30 15:02:21;;;;;;;24.90;6.13;;;;;;;;;;4952977;29;20086;-61
2022/03/30 15:04:47;;;;;;;51.50;19.70;;;;;;;;;;4952468;29;20031;-62
2022/03/30 15:07:14;;;;;;;218.93;74.00;;;;;;;;;;4951265;29;20608;-61
2022/03/30 15:09:40;;;;;;;33.30;11.48;;;;;;;;;;4951351;29;20183;-61
2022/03/30 15:12:07;;;;;;;29.80;8.25;;;;;;;;;;4951220;29;20065;-61
2022/03/30 15:14:33;;;;;;;19.13;6.82;;;;;;;;;;4951338;29;20384;-61
2022/03/30 15:16:59;;;;;;;23.67;6.90;;;;;;;;;;4950653;29;20082;-61
2022/03/30 15:19:26;;;;;;;26.60;7.35;;;;;;;;;;4948915;29;20547;-63
2022/03/30 15:21:53;;;;;;;22.50;6.50;;;;;;;;;;4950791;29;20030;-60
2022/03/30 15:24:23;;;;;;;25.55;6.95;;;;;;;;;;4949907;29;20066;-63
2022/03/30 15:26:50;;;;;;;24.05;6.70;;;;;;;;;;4935350;29;20423;-61
2022/03/30 15:29:16;;;;;;;22.55;7.60;;;;;;;;;;4951643;29;20099;-62
2022/03/30 15:31:43;;;;;;;27.02;7.75;;;;;;;;;;4952836;29;20538;-62
2022/03/30 15:34:09;;;;;;;22.75;7.38;;;;;;;;;;4950892;29;20016;-61
2022/03/30 15:36:35;;;;;;;18.20;7.35;;;;;;;;;;4947386;29;20060;-61
2022/03/30 15:39:01;;;;;;;20.95;7.50;;;;;;;;;;4941529;29;20623;-62
2022/03/30 15:41:27;;;;;;;20.45;7.05;;;;;;;;;;4940940;29;20023;-62
2022/03/30 15:43:54;;;;;;;36.05;10.82;;;;;;;;;;4943267;29;20175;-60
2022/03/30 15:46:20;;;;;;;37.08;13.18;;;;;;;;;;4935644;29;20064;-63
2022/03/30 15:48:48;;;;;;;86.13;38.13;;;;;;;;;;4935938;29;20036;-64
2022/03/30 15:51:14;;;;;;;69.68;30.92;;;;;;;;;;4936555;29;20476;-62
2022/03/30 15:53:41;;;;;;;86.80;37.17;;;;;;;;;;4937343;29;20087;-63
2022/03/30 15:56:08;;;;;;;89.57;35.53;;;;;;;;;;4937311;29;20038;-64
2022/03/30 15:58:35;;;;;;;62.78;27.55;;;;;;;;;;4936550;29;20036;-64
2022/03/30 16:01:02;;;;;;;46.70;20.63;;;;;;;;;;4937183;29;20032;-62
2022/03/30 16:03:28;;;;;;;39.67;14.30;;;;;;;;;;4937162;29;20035;-61
2022/03/30 16:05:54;;;;;;;34.35;13.73;;;;;;;;;;4937111;29;20035;-61
2022/03/30 16:13:49;;;;;;;35.65;12.15;;;;;;;;;;4936567;29;20046;-61
2022/03/30 16:16:16;;;;;;;34.17;12.00;;;;;;;;;;4936672;29;20038;-62
2022/03/30 16:18:42;;;;;;;31.75;10.55;;;;;;;;;;4936236;29;20385;-62
2022/03/30 16:21:09;;;;;;;26.35;9.95;;;;;;;;;;4936405;29;20030;-62
2022/03/30 16:23:35;;;;;;;32.63;11.60;;;;;;;;;;4936232;29;20027;-62
2022/03/30 16:26:01;;;;;;;34.67;14.82;;;;;;;;;;4936526;29;20031;-61
2022/03/30 16:28:28;;;;;;;35.58;15.10;;;;;;;;;;4936645;29;20032;-62
2022/03/30 16:30:54;;;;;;;38.00;16.75;;;;;;;;;;4919874;29;20055;-64
2022/03/30 16:33:20;;;;;;;43.10;16.92;;;;;;;;;;4936761;29;20063;-63
2022/03/30 16:35:46;;;;;;;44.22;17.58;;;;;;;;;;4936258;29;20020;-63
2022/03/30 16:38:12;;;;;;;43.72;17.83;;;;;;;;;;4943306;29;20031;-63
2022/03/30 16:40:38;;;;;;;48.00;18.73;;;;;;;;;;4953816;29;20155;-63
2022/03/30 16:43:05;;;;;;;41.33;18.50;;;;;;;;;;4954123;29;20023;-63
2022/03/30 16:45:31;;;;;;;40.25;17.45;;;;;;;;;;4953517;29;20031;-64
2022/03/30 16:48:02;;;;;;;42.35;16.67;;;;;;;;;;4954288;29;20460;-64
2022/03/30 16:50:28;;;;;;;44.97;17.03;;;;;;;;;;4955313;29;20063;-64
2022/03/30 16:52:54;;;;;;;39.63;15.48;;;;;;;;;;4953989;29;20253;-63
2022/03/30 16:55:21;;;;;;;36.58;14.38;;;;;;;;;;4954517;29;20061;-63
2022/03/30 16:57:47;;;;;;;28.20;13.30;;;;;;;;;;4953479;29;20031;-61
2022/03/30 17:00:13;;;;;;;33.50;11.80;;;;;;;;;;4935030;29;20058;-64
2022/03/30 17:02:39;;;;;;;35.88;10.35;;;;;;;;;;4954186;29;20098;-64
2022/03/30 17:05:06;;;;;;;28.60;10.88;;;;;;;;;;4954260;29;20097;-64
2022/03/30 17:07:32;;;;;;;36.90;11.45;;;;;;;;;;4954322;29;20114;-63
2022/03/30 17:09:58;;;;;;;29.90;9.30;;;;;;;;;;4954501;28;20104;-65
2022/03/30 17:12:28;;;;;;;34.15;8.75;;;;;;;;;;4954533;29;20023;-65
2022/03/30 17:14:54;;;;;;;20.98;7.97;;;;;;;;;;4953729;29;20027;-60
2022/03/30 17:17:20;;;;;;;35.72;10.77;;;;;;;;;;4954978;29;20493;-65
2022/03/30 17:19:48;;;;;;;30.70;8.73;;;;;;;;;;4955135;29;20062;-65
2022/03/30 17:22:26;;;;;;;34.15;8.98;;;;;;;;;;4958805;29;20030;-64
2022/03/30 17:24:53;;;;;;;38.88;8.82;;;;;;;;;;4953626;29;20027;-63
2022/03/30 17:27:20;;;;;;;39.63;9.02;;;;;;;;;;4955133;29;20023;-63
2022/03/30 17:29:46;;;;;;;34.90;9.63;;;;;;;;;;4954786;29;20031;-66
2022/03/30 17:32:12;;;;;;;33.60;8.57;;;;;;;;;;4936670;29;20435;-63
2022/03/30 17:34:38;;;;;;;29.88;8.32;;;;;;;;;;4954867;29;20450;-63
2022/03/30 17:37:04;;;;;;;39.85;8.98;;;;;;;;;;4954308;29;20031;-61
2022/03/30 17:39:31;;;;;;;35.60;8.82;;;;;;;;;;4954615;29;20159;-65
2022/03/30 17:41:57;;;;;;;36.22;8.98;;;;;;;;;;4954278;29;20058;-62
2022/03/30 17:44:24;;;;;;;37.47;7.38;;;;;;;;;;4953700;29;20035;-62
2022/03/30 17:46:50;;;;;;;27.10;6.65;;;;;;;;;;4954274;29;20490;-65
2022/03/30 17:52:02;;;;;;;39.40;8.50;;;;;;;;;;4954508;29;20039;-63
2022/03/30 17:54:33;;;;;;;35.50;6.97;;;;;;;;;;4956626;29;20073;-62
2022/03/30 17:57:01;;;;;;;29.42;7.60;;;;;;;;;;4927068;29;20038;-65
2022/03/30 17:59:28;;;;;;;32.95;7.55;;;;;;;;;;4957009;29;20028;-66
2022/03/30 18:01:57;;;;;;;40.05;7.28;;;;;;;;;;4954132;29;20023;-63
2022/03/30 18:04:24;;;;;;;37.30;8.23;;;;;;;;;;4956532;29;20027;-63